createdAt,value
2019-02-05T00:00:56.092Z,22.01
2019-02-05T00:03:22.140Z,22.01
2019-02-05T00:05:48.139Z,22.00
2019-02-05T00:08:14.137Z,22.01
2019-02-05T00:10:40.216Z,22.00
2019-02-05T00:13:06.248Z,22.00
2019-02-05T00:15:32.294Z,21.99
2019-02-05T00:17:58.329Z,21.99
2019-02-05T00:20:24.324Z,21.99
2019-02-05T00:22:50.319Z,21.99
2019-02-05T00:25:16.351Z,21.99
2019-02-05T00:27:42.344Z,21.99
2019-02-05T00:30:08.350Z,21.99
2019-02-05T00:32:34.385Z,21.99
2019-02-05T00:35:00.378Z,21.98
2019-02-05T00:37:26.372Z,21.98
2019-02-05T00:39:52.403Z,21.99
2019-02-05T00:42:18.399Z,21.98
2019-02-05T00:44:44.407Z,21.98
2019-02-05T00:47:10.440Z,21.97
2019-02-05T00:49:36.437Z,21.97
2019-02-05T00:52:02.428Z,21.97
2019-02-05T00:54:28.461Z,21.97
2019-02-05T00:56:54.459Z,21.97
2019-02-05T00:59:20.456Z,21.97
2019-02-05T01:01:46.483Z,21.97
2019-02-05T01:04:12.518Z,21.96
2019-02-05T01:06:38.512Z,21.96
2019-02-05T01:09:04.545Z,21.96
2019-02-05T01:11:30.546Z,21.95
2019-02-05T01:13:56.578Z,21.95
2019-02-05T01:16:22.608Z,21.95
2019-02-05T01:18:48.606Z,21.96
2019-02-05T01:21:14.604Z,21.95
2019-02-05T01:23:40.646Z,21.94
2019-02-05T01:26:06.680Z,21.95
2019-02-05T01:28:32.678Z,21.95
2019-02-05T01:30:58.838Z,21.95
2019-02-05T01:33:24.714Z,21.94
2019-02-05T01:35:50.712Z,21.94
2019-02-05T01:38:16.745Z,21.94
2019-02-05T01:40:42.734Z,21.94
2019-02-05T01:43:08.745Z,21.93
2019-02-05T01:45:34.775Z,21.94
2019-02-05T01:48:00.809Z,21.93
2019-02-05T01:50:26.799Z,21.93
2019-02-05T01:52:52.837Z,21.93
2019-02-05T01:55:18.844Z,21.93
2019-02-05T01:57:44.831Z,21.93
2019-02-05T02:00:10.863Z,21.93
2019-02-05T02:02:36.862Z,21.93
2019-02-05T02:05:02.858Z,21.93
2019-02-05T02:07:28.889Z,21.93
2019-02-05T02:09:54.919Z,21.93
2019-02-05T02:12:20.916Z,21.93
2019-02-05T02:14:46.961Z,21.93
2019-02-05T02:17:13.010Z,21.94
2019-02-05T02:19:39.000Z,21.93
2019-02-05T02:22:05.036Z,21.93
2019-02-05T02:24:31.128Z,21.93
2019-02-05T02:26:57.186Z,21.93
2019-02-05T02:29:23.302Z,21.93
2019-02-05T02:31:49.293Z,21.92
2019-02-05T02:34:15.319Z,21.93
2019-02-05T02:36:41.415Z,21.92
2019-02-05T02:39:07.390Z,21.92
2019-02-05T02:41:33.504Z,21.92
2019-02-05T02:43:59.593Z,21.92
2019-02-05T02:46:25.612Z,21.93
2019-02-05T02:48:51.631Z,21.93
2019-02-05T02:51:17.668Z,21.93
2019-02-05T02:53:43.706Z,21.93
2019-02-05T02:56:09.704Z,21.93
2019-02-05T02:58:35.817Z,21.93
2019-02-05T03:01:01.837Z,21.93
2019-02-05T03:03:27.821Z,21.92
2019-02-05T03:05:53.892Z,21.92
2019-02-05T03:08:19.897Z,21.92
2019-02-05T03:10:45.892Z,21.92
2019-02-05T03:13:11.930Z,21.91
2019-02-05T03:15:37.938Z,21.92
2019-02-05T03:18:04.017Z,21.92
2019-02-05T03:20:29.979Z,21.92
2019-02-05T03:22:56.012Z,21.93
2019-02-05T03:25:22.003Z,21.92
2019-02-05T03:27:48.041Z,21.92
2019-02-05T03:30:14.069Z,21.92
2019-02-05T03:32:40.099Z,21.92
2019-02-05T03:35:06.128Z,21.92
2019-02-05T03:37:32.147Z,21.91
2019-02-05T03:39:58.163Z,21.92
2019-02-05T03:42:24.200Z,21.92
2019-02-05T03:44:50.241Z,21.91
2019-02-05T03:47:16.251Z,21.91
2019-02-05T03:49:42.287Z,21.92
2019-02-05T03:52:08.287Z,21.90
2019-02-05T03:54:34.278Z,21.91
2019-02-05T03:57:00.327Z,21.89
2019-02-05T03:59:26.330Z,21.91
2019-02-05T04:01:52.354Z,21.91
2019-02-05T04:04:18.464Z,21.91
2019-02-05T04:06:44.478Z,21.90
2019-02-05T04:09:10.484Z,21.90
2019-02-05T04:11:36.539Z,21.90
2019-02-05T04:14:02.683Z,21.91
2019-02-05T04:16:28.706Z,21.90
2019-02-05T04:18:54.825Z,21.90
2019-02-05T04:21:20.820Z,21.89
2019-02-05T04:23:46.822Z,21.90
2019-02-05T04:26:12.889Z,21.90
2019-02-05T04:28:38.983Z,21.90
2019-02-05T04:31:07.467Z,21.89
2019-02-05T04:33:33.511Z,21.89
2019-02-05T04:35:59.509Z,21.90
2019-02-05T04:38:25.515Z,21.90
2019-02-05T04:40:51.547Z,21.89
2019-02-05T04:43:17.549Z,21.89
2019-02-05T04:45:43.758Z,21.88
2019-02-05T04:48:09.757Z,21.89
2019-02-05T04:50:35.755Z,21.89
2019-02-05T04:53:01.787Z,21.89
2019-02-05T04:55:27.903Z,21.89
2019-02-05T04:57:57.396Z,21.89
2019-02-05T05:00:19.967Z,21.89
2019-02-05T05:02:45.959Z,21.89
2019-02-05T05:05:11.965Z,21.88
2019-02-05T05:07:37.995Z,21.88
2019-02-05T05:10:03.997Z,21.88
2019-02-05T05:12:30.036Z,21.88
2019-02-05T05:14:56.050Z,21.88
2019-02-05T05:17:22.054Z,21.87
2019-02-05T05:19:48.055Z,21.88
2019-02-05T05:22:14.154Z,21.61
2019-02-05T05:24:40.122Z,21.87
2019-02-05T05:27:06.120Z,21.87
2019-02-05T05:29:33.176Z,21.87
2019-02-05T05:31:58.152Z,21.87
2019-02-05T05:34:24.152Z,21.87
2019-02-05T05:36:50.188Z,21.87
2019-02-05T05:39:16.175Z,21.87
2019-02-05T05:41:42.173Z,21.86
2019-02-05T05:44:09.545Z,21.87
2019-02-05T05:46:34.207Z,21.87
2019-02-05T05:49:00.207Z,21.86
2019-02-05T05:51:26.236Z,21.87
2019-02-05T05:53:52.230Z,21.88
2019-02-05T05:56:18.235Z,21.88
2019-02-05T05:58:44.278Z,21.88
2019-02-05T06:01:10.395Z,21.88
2019-02-05T06:03:36.392Z,21.88
2019-02-05T06:06:02.428Z,21.88
2019-02-05T06:08:28.436Z,21.88
2019-02-05T06:10:54.437Z,21.87
2019-02-05T06:13:20.470Z,21.87
2019-02-05T06:15:46.580Z,21.86
2019-02-05T06:18:12.669Z,21.87
2019-02-05T06:20:38.649Z,21.87
2019-02-05T06:23:04.657Z,21.86
2019-02-05T06:25:30.657Z,21.86
2019-02-05T06:27:56.692Z,21.85
2019-02-05T06:30:22.702Z,21.85
2019-02-05T06:32:48.708Z,21.85
2019-02-05T06:35:14.747Z,21.85
2019-02-05T06:37:40.772Z,21.85
2019-02-05T06:40:06.758Z,21.85
2019-02-05T06:42:32.801Z,21.84
2019-02-05T06:44:58.801Z,21.84
2019-02-05T06:47:24.801Z,21.84
2019-02-05T06:49:50.843Z,21.83
2019-02-05T06:52:16.961Z,21.83
2019-02-05T06:54:42.830Z,21.83
2019-02-05T06:57:08.876Z,21.83
2019-02-05T06:59:34.874Z,21.83
2019-02-05T07:02:00.876Z,21.83
2019-02-05T07:04:26.915Z,21.82
2019-02-05T07:06:52.914Z,21.82
2019-02-05T07:09:18.927Z,21.81
2019-02-05T07:11:44.970Z,21.80
2019-02-05T07:14:10.974Z,21.81
2019-02-05T07:16:36.968Z,21.81
2019-02-05T07:19:03.010Z,21.82
2019-02-05T07:21:29.015Z,21.81
2019-02-05T07:23:55.009Z,21.81
2019-02-05T07:26:21.049Z,21.81
2019-02-05T07:28:57.707Z,21.79
2019-02-05T07:31:13.040Z,21.80
2019-02-05T07:33:39.082Z,21.80
2019-02-05T07:36:05.080Z,21.80
2019-02-05T07:38:31.119Z,21.80
2019-02-05T07:40:57.177Z,21.79
2019-02-05T07:43:23.236Z,21.79
2019-02-05T07:45:49.251Z,21.79
2019-02-05T07:48:15.292Z,21.79
2019-02-05T07:50:41.293Z,21.79
2019-02-05T07:53:07.306Z,21.79
2019-02-05T07:55:33.339Z,21.78
2019-02-05T07:57:59.337Z,21.79
2019-02-05T08:00:25.347Z,21.78
2019-02-05T08:02:51.381Z,21.78
2019-02-05T08:05:17.376Z,21.77
2019-02-05T08:07:43.394Z,21.78
2019-02-05T08:10:09.430Z,21.77
2019-02-05T08:12:35.431Z,21.78
2019-02-05T08:15:01.431Z,21.77
2019-02-05T08:17:27.480Z,21.78
2019-02-05T08:19:53.484Z,21.77
2019-02-05T08:22:19.466Z,21.76
2019-02-05T08:24:45.500Z,21.76
2019-02-05T08:27:11.496Z,21.77
2019-02-05T08:29:37.500Z,21.77
2019-02-05T08:32:03.550Z,21.76
2019-02-05T08:34:29.534Z,21.76
2019-02-05T08:36:55.523Z,21.76
2019-02-05T08:39:21.580Z,21.76
2019-02-05T08:41:47.733Z,21.76
2019-02-05T08:44:13.737Z,21.75
2019-02-05T08:46:39.612Z,21.76
2019-02-05T08:49:05.602Z,21.75
2019-02-05T08:51:31.656Z,21.75
2019-02-05T08:53:57.725Z,21.75
2019-02-05T08:56:23.721Z,21.76
2019-02-05T08:58:49.716Z,21.75
2019-02-05T09:01:15.756Z,21.74
2019-02-05T09:03:41.862Z,21.75
2019-02-05T09:06:07.752Z,21.75
2019-02-05T09:08:33.783Z,21.74
2019-02-05T09:10:59.786Z,21.75
2019-02-05T09:13:26.450Z,21.76
2019-02-05T09:15:52.696Z,21.76
2019-02-05T09:18:19.077Z,21.76
2019-02-05T09:20:45.077Z,21.75
2019-02-05T09:23:14.137Z,21.75
2019-02-05T09:25:37.285Z,21.75
2019-02-05T09:28:03.328Z,21.75
2019-02-05T09:30:29.322Z,21.75
2019-02-05T09:32:55.320Z,21.76
2019-02-05T09:35:22.135Z,21.76
2019-02-05T09:37:48.141Z,21.74
2019-02-05T09:40:14.136Z,21.76
2019-02-05T09:42:40.207Z,21.76
2019-02-05T09:45:06.205Z,21.76
2019-02-05T09:47:32.259Z,21.77
2019-02-05T09:49:58.419Z,21.77
2019-02-05T09:52:24.424Z,21.77
2019-02-05T09:54:50.420Z,21.79
2019-02-05T09:57:17.293Z,21.80
2019-02-05T09:59:45.324Z,21.81
2019-02-05T10:02:09.283Z,21.83
2019-02-05T10:04:35.434Z,21.81
2019-02-05T10:07:01.425Z,21.81
2019-02-05T10:09:35.002Z,21.79
2019-02-05T10:12:01.031Z,21.80
2019-02-05T10:14:27.022Z,21.80
2019-02-05T10:16:53.015Z,21.79
2019-02-05T10:19:19.053Z,21.79
2019-02-05T10:21:45.049Z,21.77
2019-02-05T10:24:11.046Z,21.80
2019-02-05T10:26:37.081Z,21.80
2019-02-05T10:29:03.074Z,21.81
2019-02-05T10:31:29.074Z,21.80
2019-02-05T10:33:55.555Z,21.79
2019-02-05T10:36:21.119Z,21.80
2019-02-05T10:38:47.115Z,21.79
2019-02-05T10:41:13.144Z,21.79
2019-02-05T10:43:39.172Z,21.79
2019-02-05T10:46:05.168Z,21.79
2019-02-05T10:48:31.176Z,21.79
2019-02-05T10:50:57.220Z,21.81
2019-02-05T10:53:23.210Z,21.81
2019-02-05T10:55:49.205Z,21.83
2019-02-05T10:58:15.284Z,21.84
2019-02-05T11:00:41.292Z,21.85
2019-02-05T11:03:07.340Z,21.86
2019-02-05T11:05:33.395Z,21.87
2019-02-05T11:07:59.343Z,21.87
2019-02-05T11:10:25.402Z,21.90
2019-02-05T11:12:51.402Z,21.91
2019-02-05T11:15:17.400Z,21.91
2019-02-05T11:17:43.455Z,21.95
2019-02-05T11:20:09.451Z,21.98
2019-02-05T11:22:35.453Z,22.00
2019-02-05T11:25:01.513Z,21.99
2019-02-05T11:27:27.506Z,22.01
2019-02-05T11:29:53.508Z,22.01
2019-02-05T11:32:19.560Z,22.02
2019-02-05T11:34:45.557Z,22.04
2019-02-05T11:37:11.573Z,22.06
2019-02-05T11:39:37.603Z,22.05
2019-02-05T11:42:03.646Z,22.07
2019-02-05T11:44:29.649Z,22.09
2019-02-05T11:46:55.675Z,22.10
2019-02-05T11:49:21.668Z,22.13
2019-02-05T11:51:47.670Z,22.13
2019-02-05T11:54:13.712Z,22.15
2019-02-05T11:56:39.706Z,22.17
2019-02-05T11:59:05.698Z,22.17
2019-02-05T12:01:39.032Z,22.19
2019-02-05T12:03:57.815Z,22.19
2019-02-05T12:06:23.810Z,22.21
2019-02-05T12:08:49.847Z,22.21
2019-02-05T12:11:15.838Z,22.21
2019-02-05T12:13:41.842Z,22.22
2019-02-05T12:16:07.872Z,22.22
2019-02-05T12:18:33.867Z,22.22
2019-02-05T12:20:59.864Z,22.25
2019-02-05T12:23:26.018Z,22.29
2019-02-05T12:25:52.009Z,22.30
2019-02-05T12:28:18.004Z,22.31
2019-02-05T12:30:45.530Z,22.33
2019-02-05T12:33:10.131Z,22.33
2019-02-05T12:35:36.280Z,22.33
2019-02-05T12:38:02.314Z,22.35
2019-02-05T12:40:28.310Z,22.39
2019-02-05T12:42:54.309Z,22.40
2019-02-05T12:45:20.367Z,22.40
2019-02-05T12:47:46.364Z,22.38
2019-02-05T12:50:12.359Z,22.37
2019-02-05T12:52:39.627Z,22.35
2019-02-05T12:55:13.257Z,22.34
2019-02-05T12:57:31.640Z,22.36
2019-02-05T12:59:57.659Z,22.35
2019-02-05T13:02:29.782Z,22.34
2019-02-05T13:04:55.823Z,22.34
2019-02-05T13:07:22.051Z,22.36
2019-02-05T13:09:48.072Z,22.33
2019-02-05T13:12:14.073Z,22.31
2019-02-05T13:14:40.068Z,22.29
2019-02-05T13:17:06.112Z,22.28
2019-02-05T13:19:32.111Z,22.27
2019-02-05T13:21:58.108Z,22.26
2019-02-05T13:24:24.135Z,22.28
2019-02-05T13:26:50.134Z,22.25
2019-02-05T13:32:02.334Z,22.23
2019-02-05T13:34:28.415Z,22.22
2019-02-05T13:36:54.424Z,22.24
2019-02-05T13:39:20.425Z,22.25
2019-02-05T13:41:46.739Z,22.26
2019-02-05T13:44:12.719Z,22.26
2019-02-05T13:46:38.712Z,22.26
2019-02-05T13:49:04.741Z,22.26
2019-02-05T13:51:31.077Z,22.26
2019-02-05T13:53:57.087Z,22.26
2019-02-05T13:56:25.688Z,22.27
2019-02-05T13:58:53.351Z,22.25
2019-02-05T14:01:20.360Z,22.27
2019-02-05T14:03:45.344Z,22.26
2019-02-05T14:06:11.339Z,22.26
2019-02-05T14:08:37.370Z,22.26
2019-02-05T14:11:03.371Z,22.26
2019-02-05T14:13:31.229Z,22.25
2019-02-05T14:15:57.247Z,22.25
2019-02-05T14:18:23.339Z,22.25
2019-02-05T14:20:49.402Z,22.24
2019-02-05T14:23:15.716Z,22.23
2019-02-05T14:25:41.712Z,22.23
2019-02-05T14:28:07.751Z,22.24
2019-02-05T14:30:33.789Z,22.24
2019-02-05T14:32:59.793Z,22.22
2019-02-05T14:35:25.851Z,22.22
2019-02-05T14:37:51.854Z,22.19
2019-02-05T14:40:17.848Z,22.19
2019-02-05T14:42:43.916Z,22.22
2019-02-05T14:45:09.911Z,22.21
2019-02-05T14:47:35.908Z,22.22
2019-02-05T14:50:01.947Z,22.22
2019-02-05T14:52:27.945Z,22.21
2019-02-05T14:54:53.945Z,22.20
2019-02-05T14:57:19.968Z,22.18
2019-02-05T14:59:46.147Z,22.16
2019-02-05T15:02:12.206Z,22.18
2019-02-05T15:04:38.190Z,22.20
2019-02-05T15:07:04.193Z,22.20
2019-02-05T15:09:30.254Z,22.20
2019-02-05T15:11:56.248Z,22.21
2019-02-05T15:14:22.385Z,22.21
2019-02-05T15:16:48.434Z,22.20
2019-02-05T15:19:14.754Z,22.19
2019-02-05T15:21:40.773Z,22.20
2019-02-05T15:24:06.767Z,22.20
2019-02-05T15:26:32.801Z,22.20
